sensor_id;sensor_type;location;lat;lon;timestamp;P1;durP1;ratioP1;P2;durP2;ratioP2
68178;SDS011;69812;42.632;23.440;2023-07-28T00:01:47;7.25;;;6.10;;
68178;SDS011;69812;42.632;23.440;2023-07-28T00:04:13;7.95;;;6.55;;
68178;SDS011;69812;42.632;23.440;2023-07-28T00:06:38;7.93;;;6.60;;
68178;SDS011;69812;42.632;23.440;2023-07-28T00:12:00;7.63;;;6.10;;
68178;SDS011;69812;42.632;23.440;2023-07-28T00:14:26;12.05;;;6.40;;
68178;SDS011;69812;42.632;23.440;2023-07-28T00:16:56;8.55;;;6.15;;
68178;SDS011;69812;42.632;23.440;2023-07-28T00:19:32;8.30;;;6.32;;
68178;SDS011;69812;42.632;23.440;2023-07-28T00:22:02;10.68;;;6.90;;
68178;SDS011;69812;42.632;23.440;2023-07-28T00:24:28;7.72;;;6.68;;
68178;SDS011;69812;42.632;23.440;2023-07-28T00:26:55;8.38;;;6.82;;
68178;SDS011;69812;42.632;23.440;2023-07-28T00:29:31;8.27;;;6.38;;
68178;SDS011;69812;42.632;23.440;2023-07-28T00:31:56;8.55;;;6.70;;
68178;SDS011;69812;42.632;23.440;2023-07-28T00:34:22;10.02;;;6.70;;
68178;SDS011;69812;42.632;23.440;2023-07-28T00:36:52;10.10;;;7.28;;
68178;SDS011;69812;42.632;23.440;2023-07-28T00:39:17;8.20;;;7.03;;
68178;SDS011;69812;42.632;23.440;2023-07-28T00:41:46;8.23;;;6.57;;
68178;SDS011;69812;42.632;23.440;2023-07-28T00:44:11;7.47;;;6.22;;
68178;SDS011;69812;42.632;23.440;2023-07-28T00:46:37;9.18;;;6.97;;
68178;SDS011;69812;42.632;23.440;2023-07-28T00:49:13;9.02;;;6.07;;
68178;SDS011;69812;42.632;23.440;2023-07-28T00:51:44;8.43;;;6.55;;
68178;SDS011;69812;42.632;23.440;2023-07-28T00:54:27;9.82;;;6.18;;
68178;SDS011;69812;42.632;23.440;2023-07-28T00:57:01;8.13;;;6.30;;
68178;SDS011;69812;42.632;23.440;2023-07-28T00:59:27;9.45;;;6.20;;
68178;SDS011;69812;42.632;23.440;2023-07-28T01:01:57;7.75;;;6.10;;
68178;SDS011;69812;42.632;23.440;2023-07-28T01:04:28;8.30;;;5.75;;
68178;SDS011;69812;42.632;23.440;2023-07-28T01:10:01;8.77;;;6.43;;
68178;SDS011;69812;42.632;23.440;2023-07-28T01:12:33;7.28;;;5.90;;
68178;SDS011;69812;42.632;23.440;2023-07-28T01:15:03;9.25;;;7.22;;
68178;SDS011;69812;42.632;23.440;2023-07-28T01:17:30;10.07;;;7.13;;
68178;SDS011;69812;42.632;23.440;2023-07-28T01:20:01;9.02;;;6.55;;
68178;SDS011;69812;42.632;23.440;2023-07-28T01:25:49;6.68;;;5.97;;
68178;SDS011;69812;42.632;23.440;2023-07-28T01:28:23;7.95;;;5.85;;
68178;SDS011;69812;42.632;23.440;2023-07-28T01:30:58;8.20;;;6.63;;
68178;SDS011;69812;42.632;23.440;2023-07-28T01:33:26;7.35;;;6.00;;
68178;SDS011;69812;42.632;23.440;2023-07-28T01:35:54;9.65;;;5.70;;
68178;SDS011;69812;42.632;23.440;2023-07-28T01:38:27;6.70;;;5.63;;
68178;SDS011;69812;42.632;23.440;2023-07-28T01:40:55;6.57;;;5.00;;
68178;SDS011;69812;42.632;23.440;2023-07-28T01:43:23;7.45;;;5.82;;
68178;SDS011;69812;42.632;23.440;2023-07-28T01:45:51;7.97;;;5.85;;
68178;SDS011;69812;42.632;23.440;2023-07-28T01:48:17;9.20;;;5.82;;
68178;SDS011;69812;42.632;23.440;2023-07-28T01:50:57;7.45;;;5.78;;
68178;SDS011;69812;42.632;23.440;2023-07-28T01:53:30;7.90;;;5.78;;
68178;SDS011;69812;42.632;23.440;2023-07-28T01:55:55;8.63;;;5.78;;
68178;SDS011;69812;42.632;23.440;2023-07-28T01:58:27;7.47;;;6.28;;
68178;SDS011;69812;42.632;23.440;2023-07-28T02:01:00;7.85;;;6.03;;
68178;SDS011;69812;42.632;23.440;2023-07-28T02:03:33;9.43;;;6.65;;
68178;SDS011;69812;42.632;23.440;2023-07-28T02:06:11;7.85;;;5.82;;
68178;SDS011;69812;42.632;23.440;2023-07-28T02:08:36;7.43;;;5.65;;
68178;SDS011;69812;42.632;23.440;2023-07-28T02:11:10;8.38;;;5.97;;
68178;SDS011;69812;42.632;23.440;2023-07-28T02:13:38;8.77;;;6.10;;
68178;SDS011;69812;42.632;23.440;2023-07-28T02:16:04;9.07;;;6.00;;
68178;SDS011;69812;42.632;23.440;2023-07-28T02:18:35;9.68;;;6.70;;
68178;SDS011;69812;42.632;23.440;2023-07-28T02:21:00;9.98;;;6.97;;
68178;SDS011;69812;42.632;23.440;2023-07-28T02:23:27;9.73;;;6.63;;
68178;SDS011;69812;42.632;23.440;2023-07-28T02:25:55;9.05;;;6.68;;
68178;SDS011;69812;42.632;23.440;2023-07-28T02:28:23;8.13;;;6.93;;
68178;SDS011;69812;42.632;23.440;2023-07-28T02:30:54;7.78;;;6.60;;
68178;SDS011;69812;42.632;23.440;2023-07-28T02:33:21;9.23;;;6.20;;
68178;SDS011;69812;42.632;23.440;2023-07-28T02:36:11;9.02;;;6.63;;
68178;SDS011;69812;42.632;23.440;2023-07-28T02:38:39;10.00;;;6.70;;
68178;SDS011;69812;42.632;23.440;2023-07-28T02:41:07;10.80;;;6.85;;
68178;SDS011;69812;42.632;23.440;2023-07-28T02:43:32;10.20;;;6.38;;
68178;SDS011;69812;42.632;23.440;2023-07-28T02:46:00;8.13;;;6.28;;
68178;SDS011;69812;42.632;23.440;2023-07-28T02:48:31;9.15;;;7.10;;
68178;SDS011;69812;42.632;23.440;2023-07-28T02:50:56;8.23;;;6.25;;
68178;SDS011;69812;42.632;23.440;2023-07-28T02:53:21;11.80;;;6.43;;
68178;SDS011;69812;42.632;23.440;2023-07-28T02:55:49;9.10;;;6.30;;
68178;SDS011;69812;42.632;23.440;2023-07-28T02:58:15;8.20;;;6.40;;
68178;SDS011;69812;42.632;23.440;2023-07-28T03:00:41;9.55;;;6.20;;
68178;SDS011;69812;42.632;23.440;2023-07-28T03:03:14;7.95;;;6.70;;
68178;SDS011;69812;42.632;23.440;2023-07-28T03:05:44;9.52;;;7.00;;
68178;SDS011;69812;42.632;23.440;2023-07-28T03:08:11;8.23;;;5.80;;
68178;SDS011;69812;42.632;23.440;2023-07-28T03:10:39;7.10;;;5.82;;
68178;SDS011;69812;42.632;23.440;2023-07-28T03:13:24;6.95;;;5.60;;
68178;SDS011;69812;42.632;23.440;2023-07-28T03:15:57;8.80;;;7.07;;
68178;SDS011;69812;42.632;23.440;2023-07-28T03:18:27;7.80;;;5.93;;
68178;SDS011;69812;42.632;23.440;2023-07-28T03:21:03;8.65;;;6.40;;
68178;SDS011;69812;42.632;23.440;2023-07-28T03:23:31;8.77;;;6.78;;
68178;SDS011;69812;42.632;23.440;2023-07-28T03:26:01;9.45;;;6.75;;
68178;SDS011;69812;42.632;23.440;2023-07-28T03:28:39;9.15;;;6.63;;
68178;SDS011;69812;42.632;23.440;2023-07-28T03:31:06;10.68;;;7.40;;
68178;SDS011;69812;42.632;23.440;2023-07-28T03:33:32;9.85;;;6.72;;
68178;SDS011;69812;42.632;23.440;2023-07-28T03:36:00;10.15;;;6.90;;
68178;SDS011;69812;42.632;23.440;2023-07-28T03:38:26;9.02;;;6.47;;
68178;SDS011;69812;42.632;23.440;2023-07-28T03:40:54;8.77;;;6.43;;
68178;SDS011;69812;42.632;23.440;2023-07-28T03:43:24;6.93;;;5.72;;
68178;SDS011;69812;42.632;23.440;2023-07-28T03:45:57;7.32;;;5.60;;
68178;SDS011;69812;42.632;23.440;2023-07-28T03:48:23;8.13;;;5.85;;
68178;SDS011;69812;42.632;23.440;2023-07-28T03:50:53;7.20;;;5.80;;
68178;SDS011;69812;42.632;23.440;2023-07-28T03:53:28;7.32;;;5.68;;
68178;SDS011;69812;42.632;23.440;2023-07-28T03:55:57;6.50;;;5.28;;
68178;SDS011;69812;42.632;23.440;2023-07-28T03:58:24;9.77;;;5.60;;
68178;SDS011;69812;42.632;23.440;2023-07-28T04:00:52;6.15;;;4.90;;
68178;SDS011;69812;42.632;23.440;2023-07-28T04:08:23;9.13;;;6.68;;
68178;SDS011;69812;42.632;23.440;2023-07-28T04:10:52;10.45;;;6.75;;
68178;SDS011;69812;42.632;23.440;2023-07-28T04:13:22;7.07;;;6.13;;
68178;SDS011;69812;42.632;23.440;2023-07-28T04:15:50;8.68;;;6.35;;
68178;SDS011;69812;42.632;23.440;2023-07-28T04:18:20;7.78;;;5.57;;
68178;SDS011;69812;42.632;23.440;2023-07-28T04:20:48;6.40;;;5.07;;
68178;SDS011;69812;42.632;23.440;2023-07-28T04:23:16;6.38;;;5.38;;
68178;SDS011;69812;42.632;23.440;2023-07-28T04:25:46;7.90;;;4.97;;
68178;SDS011;69812;42.632;23.440;2023-07-28T04:28:12;5.80;;;5.13;;
68178;SDS011;69812;42.632;23.440;2023-07-28T04:30:37;7.78;;;4.55;;
68178;SDS011;69812;42.632;23.440;2023-07-28T04:33:15;7.00;;;4.72;;
68178;SDS011;69812;42.632;23.440;2023-07-28T04:35:43;4.95;;;3.90;;
68178;SDS011;69812;42.632;23.440;2023-07-28T04:38:11;4.07;;;3.30;;
68178;SDS011;69812;42.632;23.440;2023-07-28T04:40:37;6.50;;;3.30;;
68178;SDS011;69812;42.632;23.440;2023-07-28T04:43:11;4.35;;;3.55;;
68178;SDS011;69812;42.632;23.440;2023-07-28T04:45:51;5.05;;;3.80;;
68178;SDS011;69812;42.632;23.440;2023-07-28T04:48:21;6.03;;;3.38;;
68178;SDS011;69812;42.632;23.440;2023-07-28T04:50:48;5.05;;;3.55;;
68178;SDS011;69812;42.632;23.440;2023-07-28T04:53:19;5.05;;;3.50;;
68178;SDS011;69812;42.632;23.440;2023-07-28T04:55:49;7.53;;;3.75;;
68178;SDS011;69812;42.632;23.440;2023-07-28T04:58:22;6.15;;;4.18;;
68178;SDS011;69812;42.632;23.440;2023-07-28T05:01:07;6.30;;;3.80;;
68178;SDS011;69812;42.632;23.440;2023-07-28T05:03:34;4.78;;;3.38;;
68178;SDS011;69812;42.632;23.440;2023-07-28T05:06:04;5.25;;;4.40;;
68178;SDS011;69812;42.632;23.440;2023-07-28T05:08:32;7.75;;;4.63;;
68178;SDS011;69812;42.632;23.440;2023-07-28T05:10:57;5.45;;;4.20;;
68178;SDS011;69812;42.632;23.440;2023-07-28T05:13:23;5.15;;;4.22;;
68178;SDS011;69812;42.632;23.440;2023-07-28T05:15:53;11.52;;;4.50;;
68178;SDS011;69812;42.632;23.440;2023-07-28T05:18:25;4.78;;;4.28;;
68178;SDS011;69812;42.632;23.440;2023-07-28T05:20:51;6.07;;;4.68;;
68178;SDS011;69812;42.632;23.440;2023-07-28T05:23:16;5.15;;;4.43;;
68178;SDS011;69812;42.632;23.440;2023-07-28T05:25:42;5.70;;;4.60;;
68178;SDS011;69812;42.632;23.440;2023-07-28T05:28:16;6.60;;;5.45;;
68178;SDS011;69812;42.632;23.440;2023-07-28T05:30:42;5.95;;;4.32;;
68178;SDS011;69812;42.632;23.440;2023-07-28T05:33:12;6.28;;;4.60;;
68178;SDS011;69812;42.632;23.440;2023-07-28T05:35:37;6.63;;;4.65;;
68178;SDS011;69812;42.632;23.440;2023-07-28T05:38:03;5.35;;;4.60;;
68178;SDS011;69812;42.632;23.440;2023-07-28T05:40:28;6.47;;;4.43;;
68178;SDS011;69812;42.632;23.440;2023-07-28T05:42:59;4.95;;;4.45;;
68178;SDS011;69812;42.632;23.440;2023-07-28T05:45:26;5.55;;;4.22;;
68178;SDS011;69812;42.632;23.440;2023-07-28T05:50:27;6.53;;;4.27;;
68178;SDS011;69812;42.632;23.440;2023-07-28T05:53:07;5.15;;;3.83;;
68178;SDS011;69812;42.632;23.440;2023-07-28T05:55:36;4.55;;;3.90;;
68178;SDS011;69812;42.632;23.440;2023-07-28T05:58:06;7.07;;;3.88;;
68178;SDS011;69812;42.632;23.440;2023-07-28T06:00:39;6.05;;;4.05;;
68178;SDS011;69812;42.632;23.440;2023-07-28T06:03:10;5.43;;;3.95;;
68178;SDS011;69812;42.632;23.440;2023-07-28T06:05:41;4.10;;;3.45;;
68178;SDS011;69812;42.632;23.440;2023-07-28T06:08:09;4.85;;;3.20;;
68178;SDS011;69812;42.632;23.440;2023-07-28T06:10:39;5.20;;;3.40;;
68178;SDS011;69812;42.632;23.440;2023-07-28T06:13:27;6.10;;;3.42;;
68178;SDS011;69812;42.632;23.440;2023-07-28T06:18:21;3.13;;;2.83;;
68178;SDS011;69812;42.632;23.440;2023-07-28T06:20:51;4.32;;;3.17;;
68178;SDS011;69812;42.632;23.440;2023-07-28T06:23:16;3.78;;;2.85;;
68178;SDS011;69812;42.632;23.440;2023-07-28T06:28:12;4.15;;;3.30;;
68178;SDS011;69812;42.632;23.440;2023-07-28T06:30:40;3.70;;;2.75;;
68178;SDS011;69812;42.632;23.440;2023-07-28T06:33:08;4.80;;;2.70;;
68178;SDS011;69812;42.632;23.440;2023-07-28T06:35:34;3.72;;;2.65;;
68178;SDS011;69812;42.632;23.440;2023-07-28T06:38:03;3.55;;;2.72;;
68178;SDS011;69812;42.632;23.440;2023-07-28T06:40:28;4.55;;;3.08;;
68178;SDS011;69812;42.632;23.440;2023-07-28T06:43:03;5.10;;;3.33;;
68178;SDS011;69812;42.632;23.440;2023-07-28T06:45:38;4.85;;;3.13;;
68178;SDS011;69812;42.632;23.440;2023-07-28T06:48:06;6.40;;;3.13;;
68178;SDS011;69812;42.632;23.440;2023-07-28T06:50:33;4.65;;;3.13;;
68178;SDS011;69812;42.632;23.440;2023-07-28T06:52:59;4.70;;;2.90;;
68178;SDS011;69812;42.632;23.440;2023-07-28T06:55:34;4.10;;;3.15;;
68178;SDS011;69812;42.632;23.440;2023-07-28T06:58:04;4.38;;;3.05;;
68178;SDS011;69812;42.632;23.440;2023-07-28T07:00:39;3.67;;;3.10;;
68178;SDS011;69812;42.632;23.440;2023-07-28T07:03:04;4.95;;;3.22;;
68178;SDS011;69812;42.632;23.440;2023-07-28T07:05:32;4.57;;;3.38;;
68178;SDS011;69812;42.632;23.440;2023-07-28T07:08:11;6.90;;;3.13;;
68178;SDS011;69812;42.632;23.440;2023-07-28T07:10:39;3.70;;;2.63;;
68178;SDS011;69812;42.632;23.440;2023-07-28T07:13:04;3.88;;;3.05;;
68178;SDS011;69812;42.632;23.440;2023-07-28T07:15:33;3.60;;;3.00;;
68178;SDS011;69812;42.632;23.440;2023-07-28T07:18:00;4.50;;;2.85;;
68178;SDS011;69812;42.632;23.440;2023-07-28T07:20:37;4.10;;;2.95;;
68178;SDS011;69812;42.632;23.440;2023-07-28T07:23:10;2.53;;;2.33;;
68178;SDS011;69812;42.632;23.440;2023-07-28T07:25:39;4.30;;;3.10;;
68178;SDS011;69812;42.632;23.440;2023-07-28T07:28:08;4.20;;;2.53;;
68178;SDS011;69812;42.632;23.440;2023-07-28T07:30:36;3.17;;;2.83;;
68178;SDS011;69812;42.632;23.440;2023-07-28T07:33:05;3.88;;;2.63;;
68178;SDS011;69812;42.632;23.440;2023-07-28T07:35:30;3.40;;;2.63;;
68178;SDS011;69812;42.632;23.440;2023-07-28T07:37:58;3.20;;;2.88;;
68178;SDS011;69812;42.632;23.440;2023-07-28T07:40:23;3.50;;;2.50;;
68178;SDS011;69812;42.632;23.440;2023-07-28T07:42:49;3.35;;;2.78;;
68178;SDS011;69812;42.632;23.440;2023-07-28T07:45:17;3.60;;;2.85;;
68178;SDS011;69812;42.632;23.440;2023-07-28T07:47:42;2.85;;;2.65;;
68178;SDS011;69812;42.632;23.440;2023-07-28T07:50:11;2.88;;;2.42;;
68178;SDS011;69812;42.632;23.440;2023-07-28T07:52:37;4.15;;;2.53;;
68178;SDS011;69812;42.632;23.440;2023-07-28T07:55:03;4.07;;;2.42;;
68178;SDS011;69812;42.632;23.440;2023-07-28T07:57:29;3.92;;;2.80;;
68178;SDS011;69812;42.632;23.440;2023-07-28T07:59:57;3.92;;;2.25;;
68178;SDS011;69812;42.632;23.440;2023-07-28T08:02:23;3.50;;;2.45;;
68178;SDS011;69812;42.632;23.440;2023-07-28T08:04:51;3.72;;;2.33;;
68178;SDS011;69812;42.632;23.440;2023-07-28T08:07:20;3.00;;;2.70;;
68178;SDS011;69812;42.632;23.440;2023-07-28T08:09:46;3.85;;;2.60;;
68178;SDS011;69812;42.632;23.440;2023-07-28T08:14:49;2.92;;;2.60;;
68178;SDS011;69812;42.632;23.440;2023-07-28T08:17:17;3.05;;;2.55;;
68178;SDS011;69812;42.632;23.440;2023-07-28T08:19:47;3.13;;;2.50;;
68178;SDS011;69812;42.632;23.440;2023-07-28T08:22:13;3.75;;;2.35;;
68178;SDS011;69812;42.632;23.440;2023-07-28T08:24:41;3.70;;;2.78;;
68178;SDS011;69812;42.632;23.440;2023-07-28T08:27:06;2.90;;;2.60;;
68178;SDS011;69812;42.632;23.440;2023-07-28T08:29:39;6.18;;;2.55;;
68178;SDS011;69812;42.632;23.440;2023-07-28T08:32:07;3.78;;;2.85;;
68178;SDS011;69812;42.632;23.440;2023-07-28T08:34:36;2.80;;;2.50;;
68178;SDS011;69812;42.632;23.440;2023-07-28T08:37:04;4.43;;;2.67;;
68178;SDS011;69812;42.632;23.440;2023-07-28T08:39:44;2.72;;;2.50;;
68178;SDS011;69812;42.632;23.440;2023-07-28T08:42:12;4.55;;;2.95;;
68178;SDS011;69812;42.632;23.440;2023-07-28T08:44:41;3.85;;;2.70;;
68178;SDS011;69812;42.632;23.440;2023-07-28T08:47:06;4.40;;;3.10;;
68178;SDS011;69812;42.632;23.440;2023-07-28T08:49:44;4.07;;;3.05;;
68178;SDS011;69812;42.632;23.440;2023-07-28T08:52:15;4.07;;;2.90;;
68178;SDS011;69812;42.632;23.440;2023-07-28T08:54:44;4.22;;;3.15;;
68178;SDS011;69812;42.632;23.440;2023-07-28T08:57:12;5.13;;;3.00;;
68178;SDS011;69812;42.632;23.440;2023-07-28T08:59:37;4.03;;;3.08;;
68178;SDS011;69812;42.632;23.440;2023-07-28T09:02:08;3.67;;;3.00;;
68178;SDS011;69812;42.632;23.440;2023-07-28T09:04:34;3.35;;;2.67;;
68178;SDS011;69812;42.632;23.440;2023-07-28T09:06:59;2.90;;;2.60;;
68178;SDS011;69812;42.632;23.440;2023-07-28T09:09:31;3.42;;;3.13;;
68178;SDS011;69812;42.632;23.440;2023-07-28T09:11:58;4.10;;;2.92;;
68178;SDS011;69812;42.632;23.440;2023-07-28T09:14:35;3.25;;;2.60;;
68178;SDS011;69812;42.632;23.440;2023-07-28T09:17:08;3.50;;;3.20;;
68178;SDS011;69812;42.632;23.440;2023-07-28T09:19:51;3.60;;;2.63;;
68178;SDS011;69812;42.632;23.440;2023-07-28T09:22:18;5.40;;;2.80;;
68178;SDS011;69812;42.632;23.440;2023-07-28T09:24:52;2.85;;;2.55;;
68178;SDS011;69812;42.632;23.440;2023-07-28T09:27:21;4.15;;;2.55;;
68178;SDS011;69812;42.632;23.440;2023-07-28T09:29:50;4.07;;;2.50;;
68178;SDS011;69812;42.632;23.440;2023-07-28T09:32:28;3.60;;;2.72;;
68178;SDS011;69812;42.632;23.440;2023-07-28T09:35:09;4.82;;;2.90;;
68178;SDS011;69812;42.632;23.440;2023-07-28T09:37:41;3.20;;;2.72;;
68178;SDS011;69812;42.632;23.440;2023-07-28T09:40:19;4.00;;;3.60;;
68178;SDS011;69812;42.632;23.440;2023-07-28T09:42:49;3.50;;;2.90;;
68178;SDS011;69812;42.632;23.440;2023-07-28T09:45:19;4.75;;;2.80;;
68178;SDS011;69812;42.632;23.440;2023-07-28T09:47:47;5.72;;;3.30;;
68178;SDS011;69812;42.632;23.440;2023-07-28T09:50:19;4.05;;;3.10;;
68178;SDS011;69812;42.632;23.440;2023-07-28T09:52:49;3.58;;;2.92;;
68178;SDS011;69812;42.632;23.440;2023-07-28T09:55:21;3.55;;;2.90;;
68178;SDS011;69812;42.632;23.440;2023-07-28T09:57:56;6.55;;;2.90;;
68178;SDS011;69812;42.632;23.440;2023-07-28T10:00:25;5.32;;;2.70;;
68178;SDS011;69812;42.632;23.440;2023-07-28T10:02:56;3.25;;;2.90;;
68178;SDS011;69812;42.632;23.440;2023-07-28T10:05:25;4.63;;;3.00;;
68178;SDS011;69812;42.632;23.440;2023-07-28T10:07:51;3.65;;;2.55;;
68178;SDS011;69812;42.632;23.440;2023-07-28T10:10:17;4.70;;;3.03;;
68178;SDS011;69812;42.632;23.440;2023-07-28T10:12:48;4.07;;;2.83;;
68178;SDS011;69812;42.632;23.440;2023-07-28T10:17:49;6.13;;;2.78;;
68178;SDS011;69812;42.632;23.440;2023-07-28T10:23:12;4.28;;;2.78;;
68178;SDS011;69812;42.632;23.440;2023-07-28T10:25:48;5.22;;;2.92;;
68178;SDS011;69812;42.632;23.440;2023-07-28T10:28:27;5.95;;;3.40;;
68178;SDS011;69812;42.632;23.440;2023-07-28T10:31:05;6.05;;;3.03;;
68178;SDS011;69812;42.632;23.440;2023-07-28T10:33:40;7.03;;;3.05;;
68178;SDS011;69812;42.632;23.440;2023-07-28T10:36:10;5.07;;;2.78;;
68178;SDS011;69812;42.632;23.440;2023-07-28T10:38:41;4.35;;;3.40;;
68178;SDS011;69812;42.632;23.440;2023-07-28T10:46:39;5.10;;;3.17;;
68178;SDS011;69812;42.632;23.440;2023-07-28T10:49:05;5.38;;;3.40;;
68178;SDS011;69812;42.632;23.440;2023-07-28T10:51:32;7.20;;;3.28;;
68178;SDS011;69812;42.632;23.440;2023-07-28T10:54:03;4.97;;;3.30;;
68178;SDS011;69812;42.632;23.440;2023-07-28T10:56:28;5.05;;;3.30;;
68178;SDS011;69812;42.632;23.440;2023-07-28T10:59:00;4.75;;;3.05;;
68178;SDS011;69812;42.632;23.440;2023-07-28T11:01:37;5.53;;;2.90;;
68178;SDS011;69812;42.632;23.440;2023-07-28T11:06:42;5.68;;;3.60;;
68178;SDS011;69812;42.632;23.440;2023-07-28T11:09:11;5.15;;;3.10;;
68178;SDS011;69812;42.632;23.440;2023-07-28T11:11:39;3.83;;;3.00;;
68178;SDS011;69812;42.632;23.440;2023-07-28T11:16:33;5.43;;;3.08;;
68178;SDS011;69812;42.632;23.440;2023-07-28T11:19:03;4.80;;;2.67;;
68178;SDS011;69812;42.632;23.440;2023-07-28T11:21:35;4.13;;;3.15;;
68178;SDS011;69812;42.632;23.440;2023-07-28T11:24:02;4.53;;;3.58;;
68178;SDS011;69812;42.632;23.440;2023-07-28T11:26:28;3.85;;;2.92;;
68178;SDS011;69812;42.632;23.440;2023-07-28T11:28:53;5.07;;;3.03;;
68178;SDS011;69812;42.632;23.440;2023-07-28T11:31:24;5.75;;;3.22;;
68178;SDS011;69812;42.632;23.440;2023-07-28T11:33:53;7.65;;;3.03;;
68178;SDS011;69812;42.632;23.440;2023-07-28T11:36:24;5.18;;;3.15;;
68178;SDS011;69812;42.632;23.440;2023-07-28T11:38:51;3.92;;;3.20;;
